createdAt,value
2019-05-13T00:04:07.634Z,55.2
2019-05-13T00:09:04.468Z,55.5
2019-05-13T00:14:01.349Z,55.5
2019-05-13T00:18:58.136Z,55.5
2019-05-13T00:23:54.952Z,55.1
2019-05-13T00:28:53.400Z,55.5
2019-05-13T00:33:48.672Z,55.1
2019-05-13T00:38:45.883Z,55.4
2019-05-13T00:43:44.385Z,55
2019-05-13T00:48:39.143Z,56.4
2019-05-13T00:53:35.769Z,55.4
2019-05-13T00:58:33.470Z,55.9
2019-05-13T01:03:29.790Z,55.3
2019-05-13T01:08:26.014Z,55.8
2019-05-13T01:13:23.695Z,55.5
2019-05-13T01:18:20.020Z,55.4
2019-05-13T01:23:17.262Z,55.2
2019-05-13T01:28:14.224Z,54.8
2019-05-13T01:33:10.906Z,55
2019-05-13T01:38:08.259Z,55
2019-05-13T01:43:05.478Z,55.2
2019-05-13T01:48:06.242Z,55.7
2019-05-13T01:52:58.648Z,55.5
2019-05-13T01:57:55.470Z,55.4
2019-05-13T02:02:54.312Z,55.7
2019-05-13T02:07:57.547Z,56
2019-05-13T02:12:45.899Z,55.5
2019-05-13T02:17:44.576Z,55.4
2019-05-13T02:22:39.979Z,55.8
2019-05-13T02:27:37.099Z,55.7
2019-05-13T02:32:33.747Z,55.6
2019-05-13T02:37:34.034Z,55.5
2019-05-13T02:42:27.272Z,55.5
2019-05-13T02:47:23.818Z,56.7
2019-05-13T02:52:22.343Z,56.9
2019-05-13T02:57:17.150Z,56.9
2019-05-13T03:02:14.354Z,57
2019-05-13T03:07:11.936Z,56.5
2019-05-13T03:12:07.410Z,56.5
2019-05-13T03:17:04.053Z,56.4
2019-05-13T03:22:02.947Z,57.1
2019-05-13T03:26:57.685Z,57.5
2019-05-13T03:31:56.034Z,57.3
2019-05-13T03:36:56.563Z,57.5
2019-05-13T03:41:47.845Z,57.5
2019-05-13T03:46:44.696Z,58
2019-05-13T03:51:42.838Z,58.2
2019-05-13T03:56:38.533Z,58.1
2019-05-13T04:01:35.290Z,58.2
2019-05-13T04:06:32.551Z,58
2019-05-13T04:11:28.897Z,58.3
2019-05-13T04:16:25.553Z,58.9
2019-05-13T04:21:22.850Z,58.5
2019-05-13T04:26:19.300Z,58.6
2019-05-13T04:31:15.887Z,58.8
2019-05-13T04:36:13.505Z,58.5
2019-05-13T04:41:11.106Z,58.3
2019-05-13T04:46:05.357Z,57.9
2019-05-13T04:51:02.949Z,57.9
2019-05-13T04:55:58.604Z,58.2
2019-05-13T05:01:01.927Z,57.8
2019-05-13T05:05:52.809Z,58.1
2019-05-13T05:10:50.998Z,57.5
2019-05-13T05:15:46.012Z,57
2019-05-13T05:20:42.806Z,57.3
2019-05-13T05:25:41.579Z,57
2019-05-13T05:30:36.713Z,57.4
2019-05-13T05:35:33.467Z,57.1
2019-05-13T05:40:32.201Z,56.5
2019-05-13T05:45:27.428Z,56.2
2019-05-13T05:50:24.700Z,56.7
2019-05-13T05:55:21.442Z,56.5
2019-05-13T06:00:18.831Z,57
2019-05-13T06:05:15.489Z,56.7
2019-05-13T06:10:11.930Z,56.6
2019-05-13T06:15:09.065Z,56.6
2019-05-13T06:20:05.547Z,56.5
2019-05-13T06:25:02.214Z,56.1
2019-05-13T06:30:01.915Z,55.8
2019-05-13T06:34:56.356Z,56
2019-05-13T06:39:52.653Z,54.9
2019-05-13T06:44:51.355Z,54.8
2019-05-13T06:49:45.934Z,54.8
2019-05-13T06:54:42.502Z,54.8
2019-05-13T06:59:39.293Z,54.4
2019-05-13T07:04:36.507Z,54.3
2019-05-13T07:09:33.353Z,54.1
2019-05-13T07:14:32.029Z,53.6
2019-05-13T07:19:26.154Z,53.4
2019-05-13T07:24:22.914Z,53.5
2019-05-13T07:29:20.261Z,53.8
2019-05-13T07:34:16.360Z,53.9
2019-05-13T07:39:13.329Z,53.8
2019-05-13T07:44:11.811Z,53.9
2019-05-13T07:49:06.726Z,53.5
2019-05-13T07:54:03.474Z,53.3
2019-05-13T07:59:01.696Z,53
2019-05-13T08:03:56.170Z,53.3
2019-05-13T08:08:53.135Z,53.4
2019-05-13T08:13:51.388Z,53.6
2019-05-13T08:18:45.673Z,53.7
2019-05-13T08:23:42.474Z,53.9
2019-05-13T08:28:53.738Z,53.6
2019-05-13T08:33:36.629Z,54.2
2019-05-13T08:38:32.962Z,54.1
2019-05-13T08:43:31.600Z,54.3
2019-05-13T08:48:26.811Z,54.3
2019-05-13T08:53:23.500Z,54
2019-05-13T08:58:21.648Z,53.4
2019-05-13T09:03:17.137Z,53.5
2019-05-13T09:08:13.790Z,53.3
2019-05-13T09:13:12.041Z,53.3
2019-05-13T09:18:07.797Z,53.6
2019-05-13T09:23:04.339Z,53.1
2019-05-13T09:28:02.548Z,53
2019-05-13T09:32:58.049Z,53
2019-05-13T09:37:54.780Z,52.9
2019-05-13T09:42:52.559Z,52.7
2019-05-13T09:47:47.796Z,52.7
2019-05-13T09:52:44.543Z,52.9
2019-05-13T09:57:41.613Z,52.9
2019-05-13T10:02:38.823Z,52.2
2019-05-13T10:07:35.424Z,51.3
2019-05-13T10:12:32.707Z,51.3
2019-05-13T10:17:31.742Z,51.5
2019-05-13T10:22:26.323Z,51.6
2019-05-13T10:27:23.206Z,51.2
2019-05-13T10:32:21.907Z,50.9
2019-05-13T10:37:17.168Z,50.5
2019-05-13T10:42:14.004Z,50.2
2019-05-13T10:47:11.999Z,50.2
2019-05-13T10:52:08.197Z,50.3
2019-05-13T10:57:05.159Z,49.5
2019-05-13T11:02:02.631Z,48
2019-05-13T11:07:02.337Z,46.7
2019-05-13T11:11:56.634Z,47
2019-05-13T11:16:53.962Z,47.2
2019-05-13T11:21:51.288Z,47.8
2019-05-13T11:26:47.988Z,48.1
2019-05-13T11:31:44.621Z,48.7
2019-05-13T11:36:42.993Z,48.6
2019-05-13T11:41:38.502Z,48.8
2019-05-13T11:46:35.245Z,48.6
2019-05-13T11:51:32.420Z,48.8
2019-05-13T11:56:28.797Z,48.6
2019-05-13T12:01:25.883Z,48.7
2019-05-13T12:06:23.407Z,49.1
2019-05-13T12:11:21.660Z,48.7
2019-05-13T12:16:16.239Z,47.7
2019-05-13T12:21:12.777Z,47.8
2019-05-13T12:26:12.249Z,47.9
2019-05-13T12:31:07.316Z,47.5
2019-05-13T12:36:03.621Z,47.9
2019-05-13T12:41:03.735Z,47.8
2019-05-13T12:45:57.038Z,47.8
2019-05-13T12:50:54.373Z,47.9
2019-05-13T12:55:53.535Z,47.6
2019-05-13T13:00:47.826Z,47.9
2019-05-13T13:05:45.354Z,47.5
2019-05-13T13:10:42.465Z,47.4
2019-05-13T13:15:43.217Z,48.3
2019-05-13T13:20:40.967Z,47.8
2019-05-13T13:25:33.759Z,48.5
2019-05-13T13:30:34.536Z,48.4
2019-05-13T13:35:25.495Z,48.6
2019-05-13T13:40:28.260Z,48.3
2019-05-13T13:45:19.157Z,48.5
2019-05-13T13:50:15.939Z,48.5
2019-05-13T13:55:15.688Z,48.8
2019-05-13T14:00:22.261Z,49.5
2019-05-13T14:05:06.223Z,49.7
2019-05-13T14:10:06.530Z,49.7
2019-05-13T14:15:01.878Z,49.8
2019-05-13T14:19:56.925Z,50.3
2019-05-13T14:24:53.829Z,50.4
2019-05-13T14:29:52.574Z,50.4
2019-05-13T14:34:46.715Z,51
2019-05-13T14:39:43.059Z,51.3
2019-05-13T14:44:39.839Z,51.8
2019-05-13T14:49:36.665Z,52.3
2019-05-13T14:54:33.056Z,52.4
2019-05-13T14:59:31.420Z,52.2
2019-05-13T15:04:26.940Z,51.7
2019-05-13T15:09:23.484Z,51.5
2019-05-13T15:14:21.953Z,51.7
2019-05-13T15:19:17.717Z,52.2
2019-05-13T15:24:14.723Z,52.3
2019-05-13T15:29:11.757Z,52.5
2019-05-13T15:34:08.755Z,53.1
2019-05-13T15:39:06.082Z,53.4
2019-05-13T15:44:03.663Z,53.5
2019-05-13T15:49:01.645Z,53.1
2019-05-13T15:53:57.463Z,53.3
2019-05-13T15:58:54.646Z,53.3
2019-05-13T16:03:52.378Z,53.4
2019-05-13T16:08:51.508Z,53.7
2019-05-13T16:13:46.270Z,53.9
2019-05-13T16:18:43.341Z,53.7
2019-05-13T16:23:42.799Z,53.7
2019-05-13T16:28:37.678Z,53.5
2019-05-13T16:33:34.450Z,53.2
2019-05-13T16:38:32.814Z,52.6
2019-05-13T16:43:28.835Z,52.5
2019-05-13T16:48:25.975Z,52.6
2019-05-13T16:53:25.755Z,53.1
2019-05-13T16:58:24.408Z,53.5
2019-05-13T17:03:16.648Z,54
2019-05-13T17:08:14.110Z,53.9
2019-05-13T17:13:11.637Z,54.7
2019-05-13T17:18:11.836Z,54.7
2019-05-13T17:23:05.521Z,54.9
2019-05-13T17:28:03.094Z,60.9
2019-05-13T17:32:59.172Z,59.3
2019-05-13T17:37:56.387Z,56.5
2019-05-13T17:42:53.171Z,56
2019-05-13T17:47:51.990Z,56.7
2019-05-13T17:52:47.202Z,56.7
2019-05-13T17:57:44.623Z,56.9
2019-05-13T18:02:42.071Z,57.1
2019-05-13T18:07:38.890Z,57.1
2019-05-13T18:12:35.779Z,57.1
2019-05-13T18:17:32.600Z,57
2019-05-13T18:22:31.149Z,57.4
2019-05-13T18:27:25.905Z,57.2
2019-05-13T18:32:22.418Z,57.5
2019-05-13T18:37:21.975Z,57.5
2019-05-13T18:42:16.361Z,57.5
2019-05-13T18:47:13.638Z,57.8
2019-05-13T18:52:11.546Z,58.2
2019-05-13T18:57:07.483Z,58.4
2019-05-13T19:02:04.789Z,58.8
2019-05-13T19:07:02.431Z,58.7
2019-05-13T19:12:01.202Z,58.9
2019-05-13T19:16:56.460Z,59.1
2019-05-13T19:21:53.703Z,59.7
2019-05-13T19:26:52.084Z,59.4
2019-05-13T19:31:47.556Z,60
2019-05-13T19:36:44.468Z,60.1
2019-05-13T19:41:42.247Z,60.4
2019-05-13T19:46:38.600Z,60.5
2019-05-13T19:51:35.606Z,60.5
2019-05-13T19:56:32.405Z,60.7
2019-05-13T20:01:29.148Z,60.9
2019-05-13T20:06:26.444Z,60.7
2019-05-13T20:11:23.840Z,60.1
2019-05-13T20:16:22.129Z,60.2
2019-05-13T20:21:17.695Z,59.6
2019-05-13T20:26:15.087Z,58.9
2019-05-13T20:31:11.992Z,58.3
2019-05-13T20:36:11.732Z,58
2019-05-13T20:41:06.204Z,58
2019-05-13T20:46:03.064Z,57.8
2019-05-13T20:51:02.195Z,57.8
2019-05-13T20:55:56.812Z,57.7
2019-05-13T21:00:53.509Z,57.3
2019-05-13T21:05:52.006Z,57.1
2019-05-13T21:10:47.129Z,57.8
2019-05-13T21:15:43.949Z,57.8
2019-05-13T21:20:41.409Z,59.1
2019-05-13T21:25:38.180Z,59.7
2019-05-13T21:30:34.953Z,59.3
2019-05-13T21:35:32.221Z,59.3
2019-05-13T21:40:29.397Z,58.9
2019-05-13T21:45:25.969Z,58.4
2019-05-13T21:50:32.916Z,59.1
2019-05-13T21:55:21.652Z,59.5
2019-05-13T22:00:16.508Z,60
2019-05-13T22:05:13.215Z,60.3
2019-05-13T22:10:10.062Z,60.5
2019-05-13T22:15:06.756Z,61.4
2019-05-13T22:20:03.404Z,62.9
2019-05-13T22:25:01.914Z,62.8
2019-05-13T22:29:57.164Z,63.5
2019-05-13T22:34:53.966Z,63.5
2019-05-13T22:39:50.831Z,63.6
2019-05-13T22:44:48.064Z,63
2019-05-13T22:49:45.484Z,63.4
2019-05-13T22:54:42.721Z,63.5
2019-05-13T22:59:41.543Z,64
2019-05-13T23:04:36.759Z,63.9
2019-05-13T23:09:33.828Z,64.2
2019-05-13T23:14:31.079Z,64
2019-05-13T23:19:27.721Z,64.1
2019-05-13T23:24:24.926Z,64.6
2019-05-13T23:29:21.765Z,64.2
2019-05-13T23:34:18.975Z,63.8
2019-05-13T23:39:15.801Z,63.8
2019-05-13T23:44:23.509Z,64
2019-05-13T23:49:11.807Z,63.9
2019-05-13T23:54:07.061Z,64
2019-05-13T23:59:04.406Z,64.3
